Terminal Aerodrome Forecast
Issued by NWS Louisville, KY

Home | Current Version | Previous Version | Text Only | Print | Product List | Glossary On
Versions: 1 2 3 4 5 6 7 8 9 10 11 12 13 14 15 16
000
FTUS43 KLMK 210000 AAB
TAFSDF
TAF AMD
KSDF 210036Z 2101/2206 VRB05KT P6SM VCSH SCT045
      TEMPO 2101/2102 5SM -SHRA BKN060
     FM210300 24006KT P6SM SCT045
     FM210800 31006KT P6SM BKN035
     FM211400 34009KT P6SM BKN035=

USA.gov is the U.S. government's official web portal to all federal, state and local government web resources and services.